sensor_id;sensor_type;location;lat;lon;timestamp;P1;durP1;ratioP1;P2;durP2;ratioP2
79456;SDS011;69494;43.654;3.884;2024-02-16T00:00:49;8.07;;;2.38;;
79456;SDS011;69494;43.654;3.884;2024-02-16T00:03:14;9.38;;;3.13;;
79456;SDS011;69494;43.654;3.884;2024-02-16T00:05:40;7.90;;;2.38;;
79456;SDS011;69494;43.654;3.884;2024-02-16T00:08:05;12.15;;;3.20;;
79456;SDS011;69494;43.654;3.884;2024-02-16T00:10:31;6.68;;;3.10;;
79456;SDS011;69494;43.654;3.884;2024-02-16T00:12:56;6.63;;;3.30;;
79456;SDS011;69494;43.654;3.884;2024-02-16T00:15:22;6.88;;;3.65;;
79456;SDS011;69494;43.654;3.884;2024-02-16T00:17:47;5.38;;;2.10;;
79456;SDS011;69494;43.654;3.884;2024-02-16T00:20:13;6.18;;;2.50;;
79456;SDS011;69494;43.654;3.884;2024-02-16T00:22:38;6.43;;;2.47;;
79456;SDS011;69494;43.654;3.884;2024-02-16T00:25:04;6.28;;;2.22;;
79456;SDS011;69494;43.654;3.884;2024-02-16T00:27:29;6.47;;;2.30;;
79456;SDS011;69494;43.654;3.884;2024-02-16T00:29:55;6.63;;;2.00;;
79456;SDS011;69494;43.654;3.884;2024-02-16T00:32:20;5.53;;;1.88;;
79456;SDS011;69494;43.654;3.884;2024-02-16T00:34:48;4.25;;;1.83;;
79456;SDS011;69494;43.654;3.884;2024-02-16T00:37:17;7.40;;;2.50;;
79456;SDS011;69494;43.654;3.884;2024-02-16T00:39:42;5.03;;;1.90;;
79456;SDS011;69494;43.654;3.884;2024-02-16T00:42:08;5.97;;;1.88;;
79456;SDS011;69494;43.654;3.884;2024-02-16T00:44:33;4.20;;;1.27;;
79456;SDS011;69494;43.654;3.884;2024-02-16T00:46:59;4.20;;;1.80;;
79456;SDS011;69494;43.654;3.884;2024-02-16T00:49:24;9.60;;;2.10;;
79456;SDS011;69494;43.654;3.884;2024-02-16T00:51:49;7.03;;;2.22;;
79456;SDS011;69494;43.654;3.884;2024-02-16T00:54:15;5.80;;;2.35;;
79456;SDS011;69494;43.654;3.884;2024-02-16T00:56:42;9.18;;;2.88;;
79456;SDS011;69494;43.654;3.884;2024-02-16T00:59:07;9.75;;;2.35;;
79456;SDS011;69494;43.654;3.884;2024-02-16T01:01:34;5.28;;;2.28;;
79456;SDS011;69494;43.654;3.884;2024-02-16T01:04:00;8.70;;;2.25;;
79456;SDS011;69494;43.654;3.884;2024-02-16T01:06:27;7.25;;;2.55;;
79456;SDS011;69494;43.654;3.884;2024-02-16T01:08:52;3.78;;;1.90;;
79456;SDS011;69494;43.654;3.884;2024-02-16T01:11:18;6.38;;;2.08;;
79456;SDS011;69494;43.654;3.884;2024-02-16T01:13:45;10.70;;;2.80;;
79456;SDS011;69494;43.654;3.884;2024-02-16T01:16:11;4.68;;;1.95;;
79456;SDS011;69494;43.654;3.884;2024-02-16T01:18:36;8.60;;;2.28;;
79456;SDS011;69494;43.654;3.884;2024-02-16T01:21:02;6.20;;;1.58;;
79456;SDS011;69494;43.654;3.884;2024-02-16T01:23:28;4.68;;;2.05;;
79456;SDS011;69494;43.654;3.884;2024-02-16T01:25:54;6.25;;;2.25;;
79456;SDS011;69494;43.654;3.884;2024-02-16T01:28:19;8.27;;;3.03;;
79456;SDS011;69494;43.654;3.884;2024-02-16T01:30:45;7.95;;;2.60;;
79456;SDS011;69494;43.654;3.884;2024-02-16T01:33:10;6.00;;;2.95;;
79456;SDS011;69494;43.654;3.884;2024-02-16T01:35:36;4.45;;;2.33;;
79456;SDS011;69494;43.654;3.884;2024-02-16T01:38:02;8.65;;;2.88;;
79456;SDS011;69494;43.654;3.884;2024-02-16T01:40:28;8.75;;;2.75;;
79456;SDS011;69494;43.654;3.884;2024-02-16T01:42:54;8.05;;;2.33;;
79456;SDS011;69494;43.654;3.884;2024-02-16T01:45:19;8.82;;;2.95;;
79456;SDS011;69494;43.654;3.884;2024-02-16T01:47:46;4.85;;;2.25;;
79456;SDS011;69494;43.654;3.884;2024-02-16T01:50:14;4.38;;;2.10;;
79456;SDS011;69494;43.654;3.884;2024-02-16T01:52:41;6.47;;;2.80;;
79456;SDS011;69494;43.654;3.884;2024-02-16T01:55:08;9.15;;;2.53;;
79456;SDS011;69494;43.654;3.884;2024-02-16T01:57:39;4.72;;;1.90;;
79456;SDS011;69494;43.654;3.884;2024-02-16T02:00:05;8.27;;;2.58;;
79456;SDS011;69494;43.654;3.884;2024-02-16T02:02:33;5.03;;;2.15;;
79456;SDS011;69494;43.654;3.884;2024-02-16T02:05:00;6.00;;;2.75;;
79456;SDS011;69494;43.654;3.884;2024-02-16T02:07:25;7.97;;;2.72;;
79456;SDS011;69494;43.654;3.884;2024-02-16T02:09:52;8.30;;;2.47;;
79456;SDS011;69494;43.654;3.884;2024-02-16T02:12:18;7.75;;;2.63;;
79456;SDS011;69494;43.654;3.884;2024-02-16T02:14:44;7.75;;;2.42;;
79456;SDS011;69494;43.654;3.884;2024-02-16T02:17:09;4.68;;;2.10;;
79456;SDS011;69494;43.654;3.884;2024-02-16T02:19:35;7.40;;;2.30;;
79456;SDS011;69494;43.654;3.884;2024-02-16T02:22:00;6.85;;;2.63;;
79456;SDS011;69494;43.654;3.884;2024-02-16T02:24:26;7.70;;;2.35;;
79456;SDS011;69494;43.654;3.884;2024-02-16T02:26:52;7.65;;;2.55;;
79456;SDS011;69494;43.654;3.884;2024-02-16T02:29:17;6.53;;;2.80;;
79456;SDS011;69494;43.654;3.884;2024-02-16T02:31:42;5.78;;;2.40;;
79456;SDS011;69494;43.654;3.884;2024-02-16T02:34:08;7.32;;;2.90;;
79456;SDS011;69494;43.654;3.884;2024-02-16T02:36:35;5.10;;;2.13;;
79456;SDS011;69494;43.654;3.884;2024-02-16T02:39:01;6.05;;;2.50;;
79456;SDS011;69494;43.654;3.884;2024-02-16T02:41:26;5.35;;;2.08;;
79456;SDS011;69494;43.654;3.884;2024-02-16T02:43:51;6.55;;;2.45;;
79456;SDS011;69494;43.654;3.884;2024-02-16T02:46:17;4.95;;;2.17;;
79456;SDS011;69494;43.654;3.884;2024-02-16T02:48:44;7.28;;;2.40;;
79456;SDS011;69494;43.654;3.884;2024-02-16T02:51:10;5.70;;;2.08;;
79456;SDS011;69494;43.654;3.884;2024-02-16T02:53:35;4.93;;;2.40;;
79456;SDS011;69494;43.654;3.884;2024-02-16T02:56:01;7.40;;;2.58;;
79456;SDS011;69494;43.654;3.884;2024-02-16T02:58:27;8.50;;;2.88;;
79456;SDS011;69494;43.654;3.884;2024-02-16T03:00:53;5.97;;;2.20;;
79456;SDS011;69494;43.654;3.884;2024-02-16T03:03:19;5.60;;;2.35;;
79456;SDS011;69494;43.654;3.884;2024-02-16T03:05:45;8.57;;;2.80;;
79456;SDS011;69494;43.654;3.884;2024-02-16T03:08:10;6.95;;;2.33;;
79456;SDS011;69494;43.654;3.884;2024-02-16T03:10:36;5.35;;;2.83;;
79456;SDS011;69494;43.654;3.884;2024-02-16T03:13:01;5.90;;;2.35;;
79456;SDS011;69494;43.654;3.884;2024-02-16T03:15:28;8.48;;;2.47;;
79456;SDS011;69494;43.654;3.884;2024-02-16T03:17:54;5.65;;;2.10;;
79456;SDS011;69494;43.654;3.884;2024-02-16T03:20:19;7.35;;;2.53;;
79456;SDS011;69494;43.654;3.884;2024-02-16T03:22:46;5.57;;;2.72;;
79456;SDS011;69494;43.654;3.884;2024-02-16T03:25:12;7.80;;;2.75;;
79456;SDS011;69494;43.654;3.884;2024-02-16T03:27:37;7.43;;;2.78;;
79456;SDS011;69494;43.654;3.884;2024-02-16T03:30:03;6.72;;;2.63;;
79456;SDS011;69494;43.654;3.884;2024-02-16T03:32:29;5.43;;;2.28;;
79456;SDS011;69494;43.654;3.884;2024-02-16T03:34:58;8.38;;;3.08;;
79456;SDS011;69494;43.654;3.884;2024-02-16T03:37:24;5.50;;;2.25;;
79456;SDS011;69494;43.654;3.884;2024-02-16T03:39:49;6.22;;;2.58;;
79456;SDS011;69494;43.654;3.884;2024-02-16T03:42:15;6.22;;;2.75;;
79456;SDS011;69494;43.654;3.884;2024-02-16T03:47:07;8.40;;;3.00;;
79456;SDS011;69494;43.654;3.884;2024-02-16T03:49:33;6.32;;;2.42;;
79456;SDS011;69494;43.654;3.884;2024-02-16T03:51:59;5.22;;;2.45;;
79456;SDS011;69494;43.654;3.884;2024-02-16T03:54:24;5.57;;;2.80;;
79456;SDS011;69494;43.654;3.884;2024-02-16T03:56:52;6.20;;;2.60;;
79456;SDS011;69494;43.654;3.884;2024-02-16T03:59:19;8.73;;;2.58;;
79456;SDS011;69494;43.654;3.884;2024-02-16T04:01:44;6.43;;;2.65;;
79456;SDS011;69494;43.654;3.884;2024-02-16T04:04:10;9.20;;;3.05;;
79456;SDS011;69494;43.654;3.884;2024-02-16T04:06:35;7.72;;;2.92;;
79456;SDS011;69494;43.654;3.884;2024-02-16T04:09:01;5.10;;;2.47;;
79456;SDS011;69494;43.654;3.884;2024-02-16T04:11:26;7.32;;;2.58;;
79456;SDS011;69494;43.654;3.884;2024-02-16T04:13:54;5.75;;;2.92;;
79456;SDS011;69494;43.654;3.884;2024-02-16T04:16:19;6.53;;;2.75;;
79456;SDS011;69494;43.654;3.884;2024-02-16T04:18:47;8.40;;;3.10;;
79456;SDS011;69494;43.654;3.884;2024-02-16T04:21:12;6.35;;;2.67;;
79456;SDS011;69494;43.654;3.884;2024-02-16T04:23:38;7.03;;;2.55;;
79456;SDS011;69494;43.654;3.884;2024-02-16T04:26:03;10.52;;;3.42;;
79456;SDS011;69494;43.654;3.884;2024-02-16T04:28:31;7.10;;;2.50;;
79456;SDS011;69494;43.654;3.884;2024-02-16T04:30:57;6.32;;;3.10;;
79456;SDS011;69494;43.654;3.884;2024-02-16T04:33:22;6.93;;;3.10;;
79456;SDS011;69494;43.654;3.884;2024-02-16T04:35:48;4.88;;;2.42;;
79456;SDS011;69494;43.654;3.884;2024-02-16T04:38:15;10.88;;;3.45;;
79456;SDS011;69494;43.654;3.884;2024-02-16T04:40:41;7.13;;;2.97;;
79456;SDS011;69494;43.654;3.884;2024-02-16T04:43:06;6.53;;;2.88;;
79456;SDS011;69494;43.654;3.884;2024-02-16T04:45:32;7.65;;;3.00;;
79456;SDS011;69494;43.654;3.884;2024-02-16T04:47:57;8.63;;;2.90;;
79456;SDS011;69494;43.654;3.884;2024-02-16T04:50:24;5.95;;;2.75;;
79456;SDS011;69494;43.654;3.884;2024-02-16T04:52:49;7.95;;;3.17;;
79456;SDS011;69494;43.654;3.884;2024-02-16T04:55:14;7.57;;;2.92;;
79456;SDS011;69494;43.654;3.884;2024-02-16T04:57:40;6.82;;;3.42;;
79456;SDS011;69494;43.654;3.884;2024-02-16T05:00:06;7.43;;;3.00;;
79456;SDS011;69494;43.654;3.884;2024-02-16T05:02:34;8.20;;;2.92;;
79456;SDS011;69494;43.654;3.884;2024-02-16T05:04:59;8.23;;;2.95;;
79456;SDS011;69494;43.654;3.884;2024-02-16T05:07:25;7.65;;;2.67;;
79456;SDS011;69494;43.654;3.884;2024-02-16T05:09:50;5.22;;;2.67;;
79456;SDS011;69494;43.654;3.884;2024-02-16T05:12:20;6.30;;;2.85;;
79456;SDS011;69494;43.654;3.884;2024-02-16T05:14:49;6.82;;;2.38;;
79456;SDS011;69494;43.654;3.884;2024-02-16T05:17:15;6.13;;;3.10;;
79456;SDS011;69494;43.654;3.884;2024-02-16T05:19:40;6.15;;;2.58;;
79456;SDS011;69494;43.654;3.884;2024-02-16T05:22:05;7.47;;;2.67;;
79456;SDS011;69494;43.654;3.884;2024-02-16T05:24:31;4.60;;;2.60;;
79456;SDS011;69494;43.654;3.884;2024-02-16T05:26:56;5.70;;;2.53;;
79456;SDS011;69494;43.654;3.884;2024-02-16T05:29:21;6.75;;;2.58;;
79456;SDS011;69494;43.654;3.884;2024-02-16T05:31:47;7.50;;;2.95;;
79456;SDS011;69494;43.654;3.884;2024-02-16T05:34:15;8.18;;;2.83;;
79456;SDS011;69494;43.654;3.884;2024-02-16T05:36:40;5.63;;;3.00;;
79456;SDS011;69494;43.654;3.884;2024-02-16T05:39:07;6.25;;;3.03;;
79456;SDS011;69494;43.654;3.884;2024-02-16T05:41:45;13.30;;;4.60;;
79456;SDS011;69494;43.654;3.884;2024-02-16T05:44:11;13.57;;;3.88;;
79456;SDS011;69494;43.654;3.884;2024-02-16T05:46:36;7.18;;;3.53;;
79456;SDS011;69494;43.654;3.884;2024-02-16T05:49:03;8.27;;;3.97;;
79456;SDS011;69494;43.654;3.884;2024-02-16T05:51:38;7.60;;;3.00;;
79456;SDS011;69494;43.654;3.884;2024-02-16T05:54:27;6.10;;;3.28;;
79456;SDS011;69494;43.654;3.884;2024-02-16T05:56:52;8.15;;;3.13;;
79456;SDS011;69494;43.654;3.884;2024-02-16T05:59:18;6.85;;;3.17;;
79456;SDS011;69494;43.654;3.884;2024-02-16T06:01:43;6.82;;;2.78;;
79456;SDS011;69494;43.654;3.884;2024-02-16T06:04:08;6.30;;;2.88;;
79456;SDS011;69494;43.654;3.884;2024-02-16T06:06:35;7.63;;;3.17;;
79456;SDS011;69494;43.654;3.884;2024-02-16T06:09:00;7.63;;;3.40;;
79456;SDS011;69494;43.654;3.884;2024-02-16T06:11:26;14.65;;;3.03;;
79456;SDS011;69494;43.654;3.884;2024-02-16T06:13:51;7.30;;;3.75;;
79456;SDS011;69494;43.654;3.884;2024-02-16T06:16:16;9.60;;;3.65;;
79456;SDS011;69494;43.654;3.884;2024-02-16T06:18:42;8.15;;;3.13;;
79456;SDS011;69494;43.654;3.884;2024-02-16T06:21:07;7.45;;;3.33;;
79456;SDS011;69494;43.654;3.884;2024-02-16T06:23:33;9.05;;;3.30;;
79456;SDS011;69494;43.654;3.884;2024-02-16T06:25:58;10.07;;;3.70;;
79456;SDS011;69494;43.654;3.884;2024-02-16T06:28:23;6.30;;;2.75;;
79456;SDS011;69494;43.654;3.884;2024-02-16T06:30:49;7.53;;;3.28;;
79456;SDS011;69494;43.654;3.884;2024-02-16T06:33:14;8.65;;;3.17;;
79456;SDS011;69494;43.654;3.884;2024-02-16T06:35:40;6.93;;;2.90;;
79456;SDS011;69494;43.654;3.884;2024-02-16T06:38:05;7.95;;;3.10;;
79456;SDS011;69494;43.654;3.884;2024-02-16T06:40:31;7.00;;;3.05;;
79456;SDS011;69494;43.654;3.884;2024-02-16T06:42:57;8.48;;;2.65;;
79456;SDS011;69494;43.654;3.884;2024-02-16T06:45:22;7.38;;;3.10;;
79456;SDS011;69494;43.654;3.884;2024-02-16T06:47:48;6.78;;;3.28;;
79456;SDS011;69494;43.654;3.884;2024-02-16T06:50:13;9.73;;;3.47;;
79456;SDS011;69494;43.654;3.884;2024-02-16T06:52:38;6.80;;;3.25;;
79456;SDS011;69494;43.654;3.884;2024-02-16T06:55:04;6.43;;;3.15;;
79456;SDS011;69494;43.654;3.884;2024-02-16T06:57:29;8.98;;;3.42;;
79456;SDS011;69494;43.654;3.884;2024-02-16T06:59:56;10.02;;;3.83;;
79456;SDS011;69494;43.654;3.884;2024-02-16T07:02:22;8.68;;;3.55;;
79456;SDS011;69494;43.654;3.884;2024-02-16T07:04:48;7.80;;;3.40;;
79456;SDS011;69494;43.654;3.884;2024-02-16T07:07:13;9.05;;;3.17;;
79456;SDS011;69494;43.654;3.884;2024-02-16T07:09:38;7.50;;;3.88;;
79456;SDS011;69494;43.654;3.884;2024-02-16T07:12:04;9.88;;;3.70;;
79456;SDS011;69494;43.654;3.884;2024-02-16T07:14:31;5.68;;;2.92;;
79456;SDS011;69494;43.654;3.884;2024-02-16T07:16:57;7.30;;;3.25;;
79456;SDS011;69494;43.654;3.884;2024-02-16T07:19:22;7.25;;;3.50;;
79456;SDS011;69494;43.654;3.884;2024-02-16T07:21:48;8.30;;;3.53;;
79456;SDS011;69494;43.654;3.884;2024-02-16T07:24:13;9.48;;;4.20;;
79456;SDS011;69494;43.654;3.884;2024-02-16T07:26:40;8.45;;;3.83;;
79456;SDS011;69494;43.654;3.884;2024-02-16T07:29:05;8.25;;;4.40;;
79456;SDS011;69494;43.654;3.884;2024-02-16T07:31:34;12.40;;;4.60;;
79456;SDS011;69494;43.654;3.884;2024-02-16T07:34:00;9.25;;;4.07;;
79456;SDS011;69494;43.654;3.884;2024-02-16T07:36:26;8.40;;;4.50;;
79456;SDS011;69494;43.654;3.884;2024-02-16T07:38:51;7.43;;;4.30;;
79456;SDS011;69494;43.654;3.884;2024-02-16T07:41:17;6.80;;;3.40;;
79456;SDS011;69494;43.654;3.884;2024-02-16T07:43:42;9.25;;;3.70;;
79456;SDS011;69494;43.654;3.884;2024-02-16T07:46:07;7.78;;;3.40;;
79456;SDS011;69494;43.654;3.884;2024-02-16T07:48:33;7.95;;;3.80;;
79456;SDS011;69494;43.654;3.884;2024-02-16T07:50:59;10.25;;;3.92;;
79456;SDS011;69494;43.654;3.884;2024-02-16T07:53:27;6.00;;;2.97;;
79456;SDS011;69494;43.654;3.884;2024-02-16T07:55:53;9.60;;;3.42;;
79456;SDS011;69494;43.654;3.884;2024-02-16T07:58:18;5.97;;;2.92;;
79456;SDS011;69494;43.654;3.884;2024-02-16T08:00:44;9.02;;;3.47;;
79456;SDS011;69494;43.654;3.884;2024-02-16T08:03:09;6.45;;;3.25;;
79456;SDS011;69494;43.654;3.884;2024-02-16T08:05:35;11.70;;;4.40;;
79456;SDS011;69494;43.654;3.884;2024-02-16T08:08:00;11.43;;;5.00;;
79456;SDS011;69494;43.654;3.884;2024-02-16T08:10:25;13.85;;;5.22;;
79456;SDS011;69494;43.654;3.884;2024-02-16T08:12:51;12.13;;;4.63;;
79456;SDS011;69494;43.654;3.884;2024-02-16T08:15:17;8.45;;;4.20;;
79456;SDS011;69494;43.654;3.884;2024-02-16T08:17:48;8.30;;;3.80;;
79456;SDS011;69494;43.654;3.884;2024-02-16T08:20:13;6.68;;;2.50;;
79456;SDS011;69494;43.654;3.884;2024-02-16T08:22:40;8.10;;;2.80;;
79456;SDS011;69494;43.654;3.884;2024-02-16T08:25:06;7.07;;;2.58;;
79456;SDS011;69494;43.654;3.884;2024-02-16T08:27:32;4.63;;;2.00;;
79456;SDS011;69494;43.654;3.884;2024-02-16T08:29:57;6.95;;;2.45;;
79456;SDS011;69494;43.654;3.884;2024-02-16T08:32:23;9.55;;;2.95;;
79456;SDS011;69494;43.654;3.884;2024-02-16T08:34:49;7.30;;;2.70;;
79456;SDS011;69494;43.654;3.884;2024-02-16T08:37:15;5.28;;;2.03;;
79456;SDS011;69494;43.654;3.884;2024-02-16T08:39:41;5.45;;;2.58;;
79456;SDS011;69494;43.654;3.884;2024-02-16T08:42:07;6.22;;;2.50;;
79456;SDS011;69494;43.654;3.884;2024-02-16T08:44:36;6.22;;;2.40;;
79456;SDS011;69494;43.654;3.884;2024-02-16T08:47:03;5.68;;;2.30;;
79456;SDS011;69494;43.654;3.884;2024-02-16T08:49:29;8.50;;;2.38;;
79456;SDS011;69494;43.654;3.884;2024-02-16T08:51:55;5.15;;;2.47;;
79456;SDS011;69494;43.654;3.884;2024-02-16T08:54:21;7.18;;;3.30;;
79456;SDS011;69494;43.654;3.884;2024-02-16T08:56:46;8.15;;;3.67;;
79456;SDS011;69494;43.654;3.884;2024-02-16T08:59:13;7.05;;;2.90;;
79456;SDS011;69494;43.654;3.884;2024-02-16T09:01:38;5.75;;;2.90;;
79456;SDS011;69494;43.654;3.884;2024-02-16T09:04:04;7.82;;;3.15;;
79456;SDS011;69494;43.654;3.884;2024-02-16T09:06:30;7.75;;;3.08;;
79456;SDS011;69494;43.654;3.884;2024-02-16T09:08:56;8.63;;;2.83;;
79456;SDS011;69494;43.654;3.884;2024-02-16T09:11:22;9.57;;;3.13;;
79456;SDS011;69494;43.654;3.884;2024-02-16T09:13:48;9.02;;;3.00;;
79456;SDS011;69494;43.654;3.884;2024-02-16T09:16:14;6.22;;;2.80;;
79456;SDS011;69494;43.654;3.884;2024-02-16T09:18:40;9.52;;;3.25;;
79456;SDS011;69494;43.654;3.884;2024-02-16T09:21:05;3.67;;;1.65;;
79456;SDS011;69494;43.654;3.884;2024-02-16T09:23:32;9.02;;;2.45;;
79456;SDS011;69494;43.654;3.884;2024-02-16T09:25:58;11.23;;;3.20;;
79456;SDS011;69494;43.654;3.884;2024-02-16T09:28:24;9.40;;;2.38;;
79456;SDS011;69494;43.654;3.884;2024-02-16T09:30:50;8.07;;;2.70;;
79456;SDS011;69494;43.654;3.884;2024-02-16T09:33:16;6.57;;;2.63;;
79456;SDS011;69494;43.654;3.884;2024-02-16T09:35:41;5.90;;;2.15;;
79456;SDS011;69494;43.654;3.884;2024-02-16T09:38:06;5.70;;;2.30;;
79456;SDS011;69494;43.654;3.884;2024-02-16T09:40:32;6.57;;;2.15;;
79456;SDS011;69494;43.654;3.884;2024-02-16T09:42:58;5.32;;;2.17;;
79456;SDS011;69494;43.654;3.884;2024-02-16T09:45:23;11.77;;;2.47;;
79456;SDS011;69494;43.654;3.884;2024-02-16T09:47:49;8.80;;;2.70;;
79456;SDS011;69494;43.654;3.884;2024-02-16T09:50:17;5.72;;;2.10;;
79456;SDS011;69494;43.654;3.884;2024-02-16T09:52:46;8.65;;;2.10;;
79456;SDS011;69494;43.654;3.884;2024-02-16T09:55:13;4.07;;;1.75;;
79456;SDS011;69494;43.654;3.884;2024-02-16T09:57:39;3.58;;;1.40;;
79456;SDS011;69494;43.654;3.884;2024-02-16T10:00:04;7.20;;;2.50;;
79456;SDS011;69494;43.654;3.884;2024-02-16T10:02:42;5.35;;;1.90;;
79456;SDS011;69494;43.654;3.884;2024-02-16T10:05:10;6.22;;;2.00;;
79456;SDS011;69494;43.654;3.884;2024-02-16T10:07:42;3.58;;;1.77;;
79456;SDS011;69494;43.654;3.884;2024-02-16T10:12:47;6.05;;;1.73;;
79456;SDS011;69494;43.654;3.884;2024-02-16T10:15:18;8.75;;;2.05;;
79456;SDS011;69494;43.654;3.884;2024-02-16T10:17:45;5.32;;;2.10;;
79456;SDS011;69494;43.654;3.884;2024-02-16T10:20:10;10.45;;;2.28;;
79456;SDS011;69494;43.654;3.884;2024-02-16T10:22:43;5.20;;;2.55;;
79456;SDS011;69494;43.654;3.884;2024-02-16T10:25:09;4.18;;;1.63;;
79456;SDS011;69494;43.654;3.884;2024-02-16T10:27:36;5.32;;;1.58;;
79456;SDS011;69494;43.654;3.884;2024-02-16T10:30:02;4.35;;;1.35;;
79456;SDS011;69494;43.654;3.884;2024-02-16T10:32:34;6.60;;;2.33;;
79456;SDS011;69494;43.654;3.884;2024-02-16T10:35:02;2.83;;;1.13;;
79456;SDS011;69494;43.654;3.884;2024-02-16T10:37:31;3.10;;;1.25;;
79456;SDS011;69494;43.654;3.884;2024-02-16T10:39:57;4.88;;;1.55;;
79456;SDS011;69494;43.654;3.884;2024-02-16T10:42:24;4.90;;;2.17;;
79456;SDS011;69494;43.654;3.884;2024-02-16T10:44:52;7.05;;;1.75;;
79456;SDS011;69494;43.654;3.884;2024-02-16T10:47:18;8.02;;;1.80;;
79456;SDS011;69494;43.654;3.884;2024-02-16T10:49:44;2.60;;;1.27;;
79456;SDS011;69494;43.654;3.884;2024-02-16T10:52:10;5.75;;;1.80;;
79456;SDS011;69494;43.654;3.884;2024-02-16T10:54:37;5.97;;;1.88;;
79456;SDS011;69494;43.654;3.884;2024-02-16T10:57:07;7.28;;;1.70;;
79456;SDS011;69494;43.654;3.884;2024-02-16T10:59:41;6.00;;;2.42;;
79456;SDS011;69494;43.654;3.884;2024-02-16T11:02:08;8.18;;;1.45;;
79456;SDS011;69494;43.654;3.884;2024-02-16T11:04:38;4.63;;;1.45;;
79456;SDS011;69494;43.654;3.884;2024-02-16T11:07:10;7.20;;;2.20;;
79456;SDS011;69494;43.654;3.884;2024-02-16T11:09:38;7.28;;;1.90;;
79456;SDS011;69494;43.654;3.884;2024-02-16T11:12:05;5.53;;;2.10;;
79456;SDS011;69494;43.654;3.884;2024-02-16T11:14:45;5.15;;;1.80;;
79456;SDS011;69494;43.654;3.884;2024-02-16T11:17:12;8.57;;;2.13;;
79456;SDS011;69494;43.654;3.884;2024-02-16T11:22:07;5.40;;;2.20;;
79456;SDS011;69494;43.654;3.884;2024-02-16T11:24:36;8.32;;;2.17;;
79456;SDS011;69494;43.654;3.884;2024-02-16T11:27:07;6.30;;;2.05;;
79456;SDS011;69494;43.654;3.884;2024-02-16T11:29:33;5.40;;;2.33;;
79456;SDS011;69494;43.654;3.884;2024-02-16T11:34:27;3.90;;;1.52;;
79456;SDS011;69494;43.654;3.884;2024-02-16T11:36:57;8.82;;;2.22;;
79456;SDS011;69494;43.654;3.884;2024-02-16T11:39:23;5.68;;;2.10;;
79456;SDS011;69494;43.654;3.884;2024-02-16T11:42:03;5.15;;;1.63;;
79456;SDS011;69494;43.654;3.884;2024-02-16T11:44:30;5.22;;;1.90;;
79456;SDS011;69494;43.654;3.884;2024-02-16T11:46:57;4.68;;;2.03;;
79456;SDS011;69494;43.654;3.884;2024-02-16T11:49:23;3.67;;;1.63;;
79456;SDS011;69494;43.654;3.884;2024-02-16T11:51:48;4.55;;;2.13;;
79456;SDS011;69494;43.654;3.884;2024-02-16T11:54:14;7.78;;;1.42;;
79456;SDS011;69494;43.654;3.884;2024-02-16T11:56:42;7.43;;;1.08;;
79456;SDS011;69494;43.654;3.884;2024-02-16T11:59:11;2.90;;;1.00;;
79456;SDS011;69494;43.654;3.884;2024-02-16T12:01:47;5.18;;;1.48;;
79456;SDS011;69494;43.654;3.884;2024-02-16T12:04:23;7.50;;;1.75;;
79456;SDS011;69494;43.654;3.884;2024-02-16T12:06:57;5.82;;;1.50;;
79456;SDS011;69494;43.654;3.884;2024-02-16T12:09:23;6.05;;;1.58;;
79456;SDS011;69494;43.654;3.884;2024-02-16T12:11:50;8.95;;;1.38;;
79456;SDS011;69494;43.654;3.884;2024-02-16T12:14:17;5.40;;;1.83;;
79456;SDS011;69494;43.654;3.884;2024-02-16T12:19:20;7.07;;;1.50;;
79456;SDS011;69494;43.654;3.884;2024-02-16T12:21:53;3.42;;;1.70;;
79456;SDS011;69494;43.654;3.884;2024-02-16T12:24:22;7.35;;;2.00;;
79456;SDS011;69494;43.654;3.884;2024-02-16T12:26:49;5.40;;;1.30;;
79456;SDS011;69494;43.654;3.884;2024-02-16T12:29:14;7.00;;;2.33;;
79456;SDS011;69494;43.654;3.884;2024-02-16T12:31:41;5.65;;;1.27;;
79456;SDS011;69494;43.654;3.884;2024-02-16T12:34:09;3.55;;;1.40;;
79456;SDS011;69494;43.654;3.884;2024-02-16T12:36:34;5.05;;;1.65;;
79456;SDS011;69494;43.654;3.884;2024-02-16T12:39:01;10.63;;;1.42;;
79456;SDS011;69494;43.654;3.884;2024-02-16T12:41:28;2.95;;;1.35;;
79456;SDS011;69494;43.654;3.884;2024-02-16T12:44:01;3.90;;;1.25;;
79456;SDS011;69494;43.654;3.884;2024-02-16T12:46:27;4.78;;;1.20;;
79456;SDS011;69494;43.654;3.884;2024-02-16T12:48:53;1.27;;;0.43;;
79456;SDS011;69494;43.654;3.884;2024-02-16T12:51:19;3.80;;;1.13;;
79456;SDS011;69494;43.654;3.884;2024-02-16T12:53:45;3.03;;;1.15;;
79456;SDS011;69494;43.654;3.884;2024-02-16T12:56:10;1.48;;;0.60;;
79456;SDS011;69494;43.654;3.884;2024-02-16T12:58:36;6.13;;;1.33;;
79456;SDS011;69494;43.654;3.884;2024-02-16T13:01:02;1.23;;;0.60;;
79456;SDS011;69494;43.654;3.884;2024-02-16T13:03:29;2.63;;;0.82;;
79456;SDS011;69494;43.654;3.884;2024-02-16T13:05:55;7.57;;;1.27;;
79456;SDS011;69494;43.654;3.884;2024-02-16T13:08:20;2.90;;;1.02;;
79456;SDS011;69494;43.654;3.884;2024-02-16T13:10:45;1.65;;;0.45;;
79456;SDS011;69494;43.654;3.884;2024-02-16T13:13:11;1.92;;;0.80;;
79456;SDS011;69494;43.654;3.884;2024-02-16T13:15:36;3.47;;;1.17;;
79456;SDS011;69494;43.654;3.884;2024-02-16T13:18:01;6.40;;;1.63;;
79456;SDS011;69494;43.654;3.884;2024-02-16T13:20:27;2.47;;;0.98;;
79456;SDS011;69494;43.654;3.884;2024-02-16T13:22:52;2.58;;;0.93;;
79456;SDS011;69494;43.654;3.884;2024-02-16T13:25:19;2.88;;;0.98;;
79456;SDS011;69494;43.654;3.884;2024-02-16T13:27:44;3.90;;;1.10;;
79456;SDS011;69494;43.654;3.884;2024-02-16T13:30:10;4.85;;;1.33;;
79456;SDS011;69494;43.654;3.884;2024-02-16T13:32:36;2.72;;;1.00;;
79456;SDS011;69494;43.654;3.884;2024-02-16T13:35:04;5.75;;;1.30;;
79456;SDS011;69494;43.654;3.884;2024-02-16T13:37:31;5.25;;;1.10;;
79456;SDS011;69494;43.654;3.884;2024-02-16T13:39:56;3.95;;;1.50;;
79456;SDS011;69494;43.654;3.884;2024-02-16T13:42:21;3.28;;;1.15;;
79456;SDS011;69494;43.654;3.884;2024-02-16T13:44:47;5.18;;;1.45;;
79456;SDS011;69494;43.654;3.884;2024-02-16T13:47:12;4.03;;;1.30;;
79456;SDS011;69494;43.654;3.884;2024-02-16T13:49:38;5.13;;;1.70;;
79456;SDS011;69494;43.654;3.884;2024-02-16T13:52:04;4.57;;;1.35;;
79456;SDS011;69494;43.654;3.884;2024-02-16T13:54:29;3.67;;;1.17;;
79456;SDS011;69494;43.654;3.884;2024-02-16T13:56:55;5.47;;;1.20;;
79456;SDS011;69494;43.654;3.884;2024-02-16T13:59:20;2.17;;;1.00;;
79456;SDS011;69494;43.654;3.884;2024-02-16T14:01:45;2.40;;;0.98;;
79456;SDS011;69494;43.654;3.884;2024-02-16T14:04:11;3.08;;;1.10;;
79456;SDS011;69494;43.654;3.884;2024-02-16T14:09:03;6.23;;;1.47;;
79456;SDS011;69494;43.654;3.884;2024-02-16T14:11:38;6.60;;;1.80;;
79456;SDS011;69494;43.654;3.884;2024-02-16T14:14:04;5.57;;;1.75;;
79456;SDS011;69494;43.654;3.884;2024-02-16T14:16:30;5.40;;;2.00;;
79456;SDS011;69494;43.654;3.884;2024-02-16T14:18:56;5.53;;;1.63;;
79456;SDS011;69494;43.654;3.884;2024-02-16T14:21:21;6.25;;;1.80;;
79456;SDS011;69494;43.654;3.884;2024-02-16T14:23:47;3.55;;;1.88;;
79456;SDS011;69494;43.654;3.884;2024-02-16T14:26:12;2.83;;;1.20;;
79456;SDS011;69494;43.654;3.884;2024-02-16T14:28:37;1.63;;;0.70;;
79456;SDS011;69494;43.654;3.884;2024-02-16T14:31:03;5.88;;;1.67;;
79456;SDS011;69494;43.654;3.884;2024-02-16T14:33:28;3.72;;;1.55;;
79456;SDS011;69494;43.654;3.884;2024-02-16T14:35:54;3.97;;;1.55;;
79456;SDS011;69494;43.654;3.884;2024-02-16T14:38:19;5.07;;;1.60;;
79456;SDS011;69494;43.654;3.884;2024-02-16T14:40:44;5.00;;;1.65;;
79456;SDS011;69494;43.654;3.884;2024-02-16T14:43:10;4.05;;;1.30;;
79456;SDS011;69494;43.654;3.884;2024-02-16T14:45:35;6.40;;;1.85;;
79456;SDS011;69494;43.654;3.884;2024-02-16T14:48:03;1.70;;;0.63;;
79456;SDS011;69494;43.654;3.884;2024-02-16T14:50:29;5.38;;;1.60;;
79456;SDS011;69494;43.654;3.884;2024-02-16T14:52:55;3.20;;;1.15;;
79456;SDS011;69494;43.654;3.884;2024-02-16T14:55:21;9.68;;;2.20;;
79456;SDS011;69494;43.654;3.884;2024-02-16T14:57:46;6.95;;;1.92;;